Time;durP1;ratioP1;P1;durP2;ratioP2;P2;SDS_P1;SDS_P2;PMS_P1;PMS_P2;Temp;Humidity;BMP_temperature;BMP_pressure;BME280_temperature;BME280_humidity;BME280_pressure;Samples;Min_cycle;Max_cycle;Signal;HPM_P1;HPM_P2
2024/03/04 00:01:07;;;;;;;21.05;7.22;;;;;;;17.03;43.62;100429.59;4957239;28;20047;-62
2024/03/04 00:03:33;;;;;;;11.02;5.82;;;;;;;17.04;44.66;100428.56;4925855;29;20039;-62
2024/03/04 00:05:59;;;;;;;12.50;6.18;;;;;;;17.07;43.83;100441.72;4926192;29;20076;-62
2024/03/04 00:08:24;;;;;;;10.90;5.78;;;;;;;17.07;44.13;100433.63;4925968;29;20056;-62
2024/03/04 00:10:51;;;;;;;15.27;5.50;;;;;;;17.09;44.42;100443.22;4926432;29;20170;-62
2024/03/04 00:13:17;;;;;;;11.65;4.80;;;;;;;17.13;43.99;100444.56;4925916;29;20040;-62
2024/03/04 00:15:42;;;;;;;14.63;5.53;;;;;;;17.11;44.14;100443.06;4924911;28;20449;-62
2024/03/04 00:18:08;;;;;;;11.80;5.95;;;;;;;17.13;43.83;100452.69;4926538;29;20028;-62
2024/03/04 00:20:33;;;;;;;13.05;5.82;;;;;;;17.17;44.12;100462.13;4923969;29;20028;-62
2024/03/04 00:22:58;;;;;;;15.50;6.03;;;;;;;17.20;44.35;100467.16;4955233;28;20033;-62
2024/03/04 00:25:24;;;;;;;10.48;5.97;;;;;;;17.19;44.14;100470.91;4925775;29;20024;-62
2024/03/04 00:27:49;;;;;;;9.15;5.43;;;;;;;17.20;44.12;100478.00;4924447;28;20564;-62
2024/03/04 00:30:15;;;;;;;12.55;6.05;;;;;;;17.21;44.36;100479.69;4924367;29;20028;-62
2024/03/04 00:32:40;;;;;;;14.95;6.32;;;;;;;17.23;44.47;100482.19;4924695;29;20035;-62
2024/03/04 00:35:08;;;;;;;15.65;6.05;;;;;;;17.22;43.79;100480.53;4926835;29;20042;-62
2024/03/04 00:37:34;;;;;;;18.92;6.38;;;;;;;17.24;44.35;100489.31;4913111;29;20091;-62
2024/03/04 00:39:59;;;;;;;11.73;5.88;;;;;;;17.23;44.17;100493.03;4927438;29;20040;-63
2024/03/04 00:42:27;;;;;;;11.70;5.50;;;;;;;17.24;44.29;100497.44;4928815;29;20031;-62
2024/03/04 00:44:53;;;;;;;11.63;6.35;;;;;;;17.21;44.77;100500.50;4928765;29;20124;-62
2024/03/04 00:47:18;;;;;;;13.52;6.70;;;;;;;17.15;44.17;100498.50;4927092;29;20056;-62
2024/03/04 00:49:46;;;;;;;11.77;6.38;;;;;;;17.21;44.01;100514.03;4928699;29;20032;-62
2024/03/04 00:52:13;;;;;;;11.10;6.72;;;;;;;17.18;44.08;100517.94;4928685;29;20032;-62
2024/03/04 00:54:38;;;;;;;10.32;5.32;;;;;;;17.20;44.20;100523.16;4929617;29;20050;-62
2024/03/04 00:57:07;;;;;;;13.85;6.40;;;;;;;17.21;43.94;100527.56;4933408;29;20056;-62
2024/03/04 00:59:32;;;;;;;11.65;6.60;;;;;;;17.22;44.46;100537.38;4940069;29;20038;-63
2024/03/04 01:01:57;;;;;;;16.08;6.78;;;;;;;17.21;44.22;100524.88;4939832;29;20118;-62
2024/03/04 01:04:23;;;;;;;15.48;7.07;;;;;;;17.19;44.22;100537.75;4941778;29;20032;-62
2024/03/04 01:06:52;;;;;;;13.77;7.63;;;;;;;17.21;44.62;100549.22;4941520;29;20415;-63
2024/03/04 01:09:20;;;;;;;14.18;7.05;;;;;;;17.23;44.73;100563.41;4940711;29;20044;-63
2024/03/04 01:11:46;;;;;;;15.18;7.25;;;;;;;17.23;44.07;100563.41;4939334;29;20042;-63
2024/03/04 01:14:12;;;;;;;13.27;7.35;;;;;;;17.24;44.83;100565.13;4937411;29;20036;-62
2024/03/04 01:16:37;;;;;;;18.70;8.65;;;;;;;17.23;44.12;100568.84;4921827;29;20039;-63
2024/03/04 01:19:04;;;;;;;13.55;7.80;;;;;;;17.24;44.87;100581.34;4937706;29;20035;-63
2024/03/04 01:21:30;;;;;;;13.85;6.97;;;;;;;17.24;44.56;100575.94;4937687;29;20118;-63
2024/03/04 01:23:56;;;;;;;16.27;7.28;;;;;;;17.19;44.14;100570.22;4937578;29;20118;-62
2024/03/04 01:26:23;;;;;;;15.25;6.82;;;;;;;17.19;44.74;100575.66;4939026;29;20054;-63
2024/03/04 01:28:49;;;;;;;14.85;6.97;;;;;;;17.18;44.40;100580.22;4937524;29;20032;-63
2024/03/04 01:31:15;;;;;;;19.80;6.80;;;;;;;17.18;44.63;100582.06;4921740;29;20031;-62
2024/03/04 01:33:45;;;;;;;8.75;5.70;;;;;;;17.15;44.75;100577.84;4921178;29;20407;-62
2024/03/04 01:36:11;;;;;;;13.45;6.25;;;;;;;17.12;44.66;100567.38;4937231;29;20448;-62
2024/03/04 01:38:37;;;;;;;7.63;4.05;;;;;;;17.12;44.92;100580.91;4937379;29;20083;-63
2024/03/04 01:41:03;;;;;;;7.65;3.85;;;;;;;17.05;44.66;100579.94;4953234;29;20166;-62
2024/03/04 01:43:28;;;;;;;9.05;4.32;;;;;;;17.02;45.14;100585.72;4938405;29;20043;-63
2024/03/04 01:45:54;;;;;;;8.23;3.78;;;;;;;16.94;44.59;100584.91;4936348;29;20040;-63
2024/03/04 01:48:19;;;;;;;7.43;2.70;;;;;;;16.93;44.70;100599.44;4938499;29;20035;-63
2024/03/04 01:50:45;;;;;;;5.18;3.15;;;;;;;16.91;45.02;100591.50;4953339;29;20460;-63
2024/03/04 01:53:11;;;;;;;7.30;3.10;;;;;;;16.86;44.78;100593.91;4938275;29;20039;-62
2024/03/04 01:55:42;;;;;;;6.35;2.70;;;;;;;16.84;44.93;100602.19;4938425;29;20038;-63
2024/03/04 01:58:11;;;;;;;5.28;2.83;;;;;;;16.81;45.32;100612.50;4936901;29;20422;-63
2024/03/04 02:00:39;;;;;;;5.03;2.47;;;;;;;16.79;43.90;100609.13;4936999;29;20039;-63
2024/03/04 02:03:06;;;;;;;12.10;2.90;;;;;;;16.79;44.63;100615.41;4936862;29;20515;-63
2024/03/04 02:05:32;;;;;;;7.68;3.42;;;;;;;16.78;44.43;100608.28;4936950;29;20039;-62
2024/03/04 02:07:58;;;;;;;5.80;3.30;;;;;;;16.75;44.15;100613.22;4937891;29;20043;-63
2024/03/04 02:10:24;;;;;;;4.72;2.63;;;;;;;16.73;44.13;100607.97;4920876;29;20032;-62
2024/03/04 02:12:49;;;;;;;3.55;2.40;;;;;;;16.72;44.38;100614.38;4936789;29;20396;-63
2024/03/04 02:15:14;;;;;;;2.90;1.98;;;;;;;16.68;44.17;100618.47;4937818;29;20095;-62
2024/03/04 02:17:40;;;;;;;3.90;2.40;;;;;;;16.66;45.22;100620.53;4936733;29;20051;-63
2024/03/04 02:20:09;;;;;;;5.07;2.30;;;;;;;16.67;45.21;100616.78;4937903;29;20032;-63
2024/03/04 02:22:35;;;;;;;2.70;1.75;;;;;;;16.64;44.21;100611.72;4920608;29;20032;-63
2024/03/04 02:25:00;;;;;;;4.93;2.60;;;;;;;16.65;43.94;100616.13;4936568;29;20063;-62
2024/03/04 02:27:26;;;;;;;3.83;2.33;;;;;;;16.65;43.89;100615.28;4920560;29;20036;-62
2024/03/04 02:29:51;;;;;;;4.78;2.20;;;;;;;16.68;44.07;100615.78;4920548;29;20043;-62
2024/03/04 02:32:17;;;;;;;3.67;2.10;;;;;;;16.68;43.54;100612.22;4920403;29;20028;-63
2024/03/04 02:34:45;;;;;;;5.43;2.08;;;;;;;16.66;44.86;100617.81;4935753;29;20150;-64
2024/03/04 02:37:11;;;;;;;3.55;1.80;;;;;;;16.62;44.58;100619.16;4936379;29;20062;-63
2024/03/04 02:39:37;;;;;;;3.10;2.30;;;;;;;16.65;44.19;100623.38;4920715;29;20428;-62
2024/03/04 02:42:03;;;;;;;6.40;2.58;;;;;;;16.66;43.99;100625.94;4937318;29;20028;-62
2024/03/04 02:44:30;;;;;;;2.47;2.08;;;;;;;16.65;44.72;100620.69;4937354;29;20031;-63
2024/03/04 02:46:55;;;;;;;7.63;2.63;;;;;;;16.66;43.77;100630.50;4920210;29;20063;-62
2024/03/04 02:49:21;;;;;;;6.85;2.97;;;;;;;16.66;44.42;100620.53;4920280;29;20024;-62
2024/03/04 02:51:46;;;;;;;10.30;2.72;;;;;;;16.66;45.08;100625.94;4920085;28;20024;-63
2024/03/04 02:54:12;;;;;;;4.78;2.83;;;;;;;16.63;44.42;100631.69;4935917;29;20026;-62
2024/03/04 02:56:38;;;;;;;4.93;3.15;;;;;;;16.60;44.04;100629.31;4920013;29;20019;-62
2024/03/04 02:59:03;;;;;;;7.13;3.15;;;;;;;16.61;45.20;100633.69;4935673;29;20157;-63
2024/03/04 03:01:28;;;;;;;4.90;3.17;;;;;;;16.61;44.38;100633.69;4934772;29;20086;-62
2024/03/04 03:03:54;;;;;;;9.38;3.53;;;;;;;16.60;44.92;100634.72;4935698;29;20031;-62
2024/03/04 03:06:20;;;;;;;7.43;3.97;;;;;;;16.61;44.03;100631.00;4936046;29;20031;-62
2024/03/04 03:08:45;;;;;;;6.28;3.95;;;;;;;16.60;44.12;100626.63;4936912;29;20032;-62
2024/03/04 03:11:11;;;;;;;7.25;3.95;;;;;;;16.59;44.70;100637.59;4935874;29;20114;-63
2024/03/04 03:13:37;;;;;;;4.85;3.95;;;;;;;16.60;44.61;100645.56;4937155;29;20035;-63
2024/03/04 03:16:04;;;;;;;7.97;4.05;;;;;;;16.60;44.31;100642.84;4935588;29;20480;-63
2024/03/04 03:18:30;;;;;;;5.85;4.22;;;;;;;16.62;44.09;100646.22;4935591;29;20110;-63
2024/03/04 03:20:55;;;;;;;9.18;4.10;;;;;;;16.59;44.43;100646.56;4935540;28;20110;-63
2024/03/04 03:23:21;;;;;;;14.25;5.80;;;;;;;16.61;44.49;100654.50;4935958;29;20019;-62
2024/03/04 03:25:46;;;;;;;6.47;4.45;;;;;;;16.61;44.50;100655.34;4936882;29;20051;-63
2024/03/04 03:28:13;;;;;;;5.75;3.88;;;;;;;16.62;44.46;100662.44;4935579;29;20548;-62
2024/03/04 03:30:40;;;;;;;7.47;3.75;;;;;;;16.60;44.10;100660.94;4935241;29;20057;-62
2024/03/04 03:33:05;;;;;;;7.25;4.68;;;;;;;16.59;43.97;100673.59;4935205;29;20381;-63
2024/03/04 03:35:30;;;;;;;5.72;3.78;;;;;;;16.58;44.64;100668.38;4935034;29;20556;-63
2024/03/04 03:37:56;;;;;;;6.30;4.22;;;;;;;16.54;43.61;100662.47;4919773;29;20510;-63
2024/03/04 03:40:21;;;;;;;7.97;4.20;;;;;;;16.57;44.59;100670.22;4936573;28;20052;-62
2024/03/04 03:42:47;;;;;;;7.53;4.40;;;;;;;16.57;44.56;100683.75;4935206;29;20522;-63
2024/03/04 03:45:12;;;;;;;8.02;4.20;;;;;;;16.53;43.88;100673.41;4934927;29;20042;-62
2024/03/04 03:47:37;;;;;;;11.93;4.45;;;;;;;16.48;44.33;100682.03;4919155;29;20032;-62
2024/03/04 03:50:03;;;;;;;10.38;5.35;;;;;;;16.48;44.55;100682.03;4935032;29;20439;-63
2024/03/04 03:52:31;;;;;;;7.45;4.90;;;;;;;16.44;44.26;100680.72;4935314;29;20039;-63
2024/03/04 03:54:57;;;;;;;8.40;4.03;;;;;;;16.50;45.07;100695.41;4919521;29;20083;-63
2024/03/04 03:57:22;;;;;;;9.10;4.40;;;;;;;16.50;43.60;100696.22;4934951;29;20032;-62
2024/03/04 03:59:47;;;;;;;8.70;4.75;;;;;;;16.48;44.62;100697.41;4934979;29;20123;-63
2024/03/04 04:02:12;;;;;;;7.30;4.38;;;;;;;16.46;44.29;100700.28;4936116;29;20039;-62
2024/03/04 04:04:38;;;;;;;7.70;4.45;;;;;;;16.45;43.46;100700.44;4934844;29;20034;-62
2024/03/04 04:07:03;;;;;;;10.40;5.05;;;;;;;16.48;45.05;100710.94;4936079;29;20441;-62
2024/03/04 04:09:29;;;;;;;9.48;5.00;;;;;;;16.47;43.86;100701.16;4934392;29;20032;-63
2024/03/04 04:11:54;;;;;;;9.00;4.15;;;;;;;16.44;44.10;100715.84;4934995;29;20445;-63
2024/03/04 04:14:20;;;;;;;8.27;4.00;;;;;;;16.44;44.24;100723.97;4934846;29;20039;-63
2024/03/04 04:16:45;;;;;;;8.55;4.60;;;;;;;16.44;44.01;100726.66;4950550;29;20031;-62
2024/03/04 04:19:11;;;;;;;9.70;4.80;;;;;;;16.43;44.04;100727.66;4934858;29;20488;-63
2024/03/04 04:21:36;;;;;;;9.23;4.75;;;;;;;16.38;44.36;100711.13;4934775;29;20117;-63
2024/03/04 04:24:01;;;;;;;11.50;4.95;;;;;;;16.45;44.56;100728.34;4934932;29;20496;-62
2024/03/04 04:26:27;;;;;;;7.90;5.28;;;;;;;16.45;43.90;100731.03;4934853;29;20052;-62
2024/03/04 04:28:52;;;;;;;6.47;4.30;;;;;;;16.46;44.99;100738.16;4935820;29;20111;-62
2024/03/04 04:31:19;;;;;;;11.55;4.90;;;;;;;16.47;43.83;100739.81;4934547;29;20074;-63
2024/03/04 04:33:45;;;;;;;6.65;4.40;;;;;;;16.45;43.90;100741.84;4935731;29;20031;-63
2024/03/04 04:36:10;;;;;;;5.80;3.70;;;;;;;16.46;43.90;100740.00;4950264;29;20058;-63
2024/03/04 04:38:36;;;;;;;4.25;2.55;;;;;;;16.44;44.35;100742.03;4935546;29;20031;-62
2024/03/04 04:41:01;;;;;;;4.65;3.10;;;;;;;16.46;43.22;100748.13;4934608;29;20035;-63
2024/03/04 04:43:26;;;;;;;3.90;2.38;;;;;;;16.46;44.35;100753.53;4934356;29;20051;-63
2024/03/04 04:45:52;;;;;;;5.82;2.33;;;;;;;16.47;43.63;100750.63;4935791;29;20087;-63
2024/03/04 04:48:18;;;;;;;2.60;2.05;;;;;;;16.46;44.02;100751.66;4934768;29;20492;-62
2024/03/04 04:50:43;;;;;;;3.88;1.75;;;;;;;16.44;43.71;100761.81;4935700;29;20051;-62
2024/03/04 04:53:09;;;;;;;7.15;1.88;;;;;;;16.43;43.55;100754.72;4934102;29;20068;-62
2024/03/04 04:55:35;;;;;;;2.13;1.30;;;;;;;16.43;44.16;100760.13;4935925;29;20361;-63
2024/03/04 04:58:00;;;;;;;2.85;1.90;;;;;;;16.40;43.62;100755.03;4934559;29;20040;-63
2024/03/04 05:00:25;;;;;;;2.97;1.83;;;;;;;16.42;44.04;100774.63;4934969;29;20580;-63
2024/03/04 05:02:51;;;;;;;3.00;1.80;;;;;;;16.43;44.06;100776.34;4935860;29;20035;-62
2024/03/04 05:05:16;;;;;;;3.13;1.45;;;;;;;16.43;44.29;100765.53;4935501;29;20054;-63
2024/03/04 05:07:41;;;;;;;2.40;1.77;;;;;;;16.36;43.68;100764.50;4936253;28;20038;-62
2024/03/04 05:10:08;;;;;;;2.30;1.50;;;;;;;16.37;43.82;100766.19;4919185;29;20040;-63
2024/03/04 05:12:33;;;;;;;3.97;1.70;;;;;;;16.37;44.46;100777.00;4951789;29;20118;-63
2024/03/04 05:14:59;;;;;;;2.83;1.73;;;;;;;16.35;43.65;100776.34;4936210;29;20503;-63
2024/03/04 05:17:24;;;;;;;4.72;2.05;;;;;;;16.35;43.30;100773.63;4936629;29;20039;-63
2024/03/04 05:19:50;;;;;;;2.05;1.45;;;;;;;16.33;43.50;100775.66;4935930;29;20039;-63
2024/03/04 05:22:15;;;;;;;3.05;1.83;;;;;;;16.32;43.92;100776.66;4939109;29;20107;-62
2024/03/04 05:24:41;;;;;;;3.95;1.42;;;;;;;16.35;43.90;100783.59;4937820;29;20452;-63
2024/03/04 05:27:06;;;;;;;3.50;2.08;;;;;;;16.33;44.27;100781.06;4937734;29;20472;-63
2024/03/04 05:29:31;;;;;;;2.35;1.63;;;;;;;16.32;43.44;100784.78;4939047;29;20495;-63
2024/03/04 05:31:57;;;;;;;3.13;1.55;;;;;;;16.33;43.95;100782.94;4938541;29;20168;-63
2024/03/04 05:34:22;;;;;;;2.72;1.50;;;;;;;16.30;43.90;100790.34;4937561;29;20083;-63
2024/03/04 05:36:48;;;;;;;1.85;1.42;;;;;;;16.30;43.17;100786.81;4953260;29;20036;-62
2024/03/04 05:39:18;;;;;;;5.45;1.45;;;;;;;16.28;42.93;100802.31;4937283;29;20091;-63
2024/03/04 05:41:44;;;;;;;3.60;1.48;;;;;;;16.26;42.88;100797.09;4921932;29;20389;-62
2024/03/04 05:44:09;;;;;;;2.28;1.40;;;;;;;16.27;43.42;100806.88;4921031;29;20039;-63
2024/03/04 05:46:34;;;;;;;1.90;1.27;;;;;;;16.26;42.70;100809.78;4921627;29;20044;-62
2024/03/04 05:49:00;;;;;;;1.10;1.00;;;;;;;16.26;44.46;100812.47;4921455;29;20039;-63
2024/03/04 05:51:25;;;;;;;1.33;1.23;;;;;;;16.24;42.66;100814.50;4938729;29;20042;-62
2024/03/04 05:53:51;;;;;;;1.33;1.10;;;;;;;16.21;42.93;100809.44;4953233;29;20080;-63
2024/03/04 05:56:16;;;;;;;2.65;1.58;;;;;;;16.21;43.58;100815.69;4937273;29;20118;-63
2024/03/04 05:58:41;;;;;;;2.65;1.33;;;;;;;16.20;44.09;100810.44;4937098;29;20027;-62
2024/03/04 06:01:07;;;;;;;2.95;1.02;;;;;;;16.20;43.61;100799.63;4938540;29;20042;-62
2024/03/04 06:03:32;;;;;;;1.73;1.27;;;;;;;16.21;42.75;100804.03;4921011;29;20035;-62
2024/03/04 06:05:58;;;;;;;2.53;1.02;;;;;;;16.20;43.06;100813.13;4938282;29;20024;-63
2024/03/04 06:08:23;;;;;;;2.28;1.20;;;;;;;16.19;42.84;100811.47;4936925;29;20067;-62
2024/03/04 06:10:48;;;;;;;1.70;1.10;;;;;;;16.16;43.03;100811.78;4938226;29;20028;-62
2024/03/04 06:13:14;;;;;;;1.40;1.00;;;;;;;16.14;43.00;100802.97;4937049;29;20038;-62
2024/03/04 06:15:39;;;;;;;3.03;1.50;;;;;;;16.15;43.81;100812.78;4952663;29;20059;-62
2024/03/04 06:18:05;;;;;;;2.45;1.48;;;;;;;16.16;42.98;100818.00;4920954;29;20027;-62
2024/03/04 06:20:30;;;;;;;1.83;1.42;;;;;;;16.14;43.32;100819.19;4936719;29;20087;-62
2024/03/04 06:22:55;;;;;;;2.72;1.15;;;;;;;16.13;43.27;100821.06;4920615;29;20032;-63
2024/03/04 06:25:21;;;;;;;2.78;1.10;;;;;;;16.12;43.56;100821.22;4938086;29;20039;-62
2024/03/04 06:27:46;;;;;;;1.77;1.20;;;;;;;16.11;44.13;100824.94;4936500;29;20036;-62
2024/03/04 06:30:13;;;;;;;2.83;1.30;;;;;;;16.07;43.38;100823.56;4920830;29;20032;-63
2024/03/04 06:32:38;;;;;;;1.30;0.90;;;;;;;16.05;43.21;100831.84;4932432;29;20044;-62
2024/03/04 06:35:05;;;;;;;1.27;1.00;;;;;;;16.05;43.09;100831.00;4917434;29;20036;-62
2024/03/04 06:37:31;;;;;;;2.63;0.90;;;;;;;16.07;43.58;100831.69;4919036;29;20382;-62
2024/03/04 06:39:57;;;;;;;1.33;0.70;;;;;;;16.05;43.33;100829.13;4917623;29;20039;-62
2024/03/04 06:42:23;;;;;;;2.35;0.93;;;;;;;16.04;43.91;100830.16;4917573;29;20043;-63
2024/03/04 06:44:49;;;;;;;2.33;0.95;;;;;;;16.07;42.79;100839.78;4918544;29;20096;-62
2024/03/04 06:47:14;;;;;;;2.95;1.08;;;;;;;16.07;43.94;100839.78;4917032;29;20040;-63
2024/03/04 06:49:40;;;;;;;6.00;1.00;;;;;;;16.07;42.69;100845.19;4915342;29;20043;-62
2024/03/04 06:52:06;;;;;;;1.40;0.93;;;;;;;16.07;44.11;100842.50;4920298;29;20084;-63
2024/03/04 06:54:32;;;;;;;7.70;1.10;;;;;;;16.08;44.28;100841.50;4936039;29;20043;-62
2024/03/04 06:56:57;;;;;;;1.92;0.90;;;;;;;16.07;43.38;100842.50;4920154;29;20036;-63
2024/03/04 06:59:23;;;;;;;3.45;1.17;;;;;;;16.09;43.80;100841.31;4937503;29;20066;-62
2024/03/04 07:01:48;;;;;;;2.70;1.13;;;;;;;16.11;43.67;100846.53;4919918;29;20074;-63
2024/03/04 07:04:14;;;;;;;2.50;0.85;;;;;;;16.11;44.05;100846.53;4935498;29;20087;-62
2024/03/04 07:06:39;;;;;;;2.88;1.25;;;;;;;16.13;44.03;100856.22;4937017;29;20083;-63
2024/03/04 07:09:04;;;;;;;1.30;1.05;;;;;;;16.14;43.21;100862.44;4951890;29;20487;-63
2024/03/04 07:11:30;;;;;;;2.15;1.20;;;;;;;16.13;43.33;100855.34;4937052;29;20039;-65
2024/03/04 07:13:55;;;;;;;2.35;1.35;;;;;;;16.13;43.85;100852.66;4935886;29;20035;-62
2024/03/04 07:16:21;;;;;;;4.90;1.10;;;;;;;16.14;42.83;100854.31;4935663;29;20032;-63
2024/03/04 07:18:46;;;;;;;2.85;1.58;;;;;;;16.17;44.41;100854.00;4935606;29;20054;-63
2024/03/04 07:21:15;;;;;;;4.10;1.00;;;;;;;16.21;44.40;100863.47;4935752;29;20027;-63
2024/03/04 07:23:41;;;;;;;9.57;1.38;;;;;;;16.22;43.70;100854.34;4935732;29;20118;-62
2024/03/04 07:26:07;;;;;;;1.83;1.10;;;;;;;16.22;43.92;100859.75;4935795;29;20068;-63
2024/03/04 07:28:32;;;;;;;6.75;1.10;;;;;;;16.22;43.60;100859.75;4937000;29;20112;-63
2024/03/04 07:30:58;;;;;;;2.13;1.17;;;;;;;16.22;43.37;100862.44;4930713;29;20036;-63
2024/03/04 07:33:24;;;;;;;5.70;1.55;;;;;;;16.23;42.90;100854.19;4919045;29;20135;-63
2024/03/04 07:35:49;;;;;;;2.97;1.10;;;;;;;16.24;43.93;100849.63;4898373;29;20505;-63
2024/03/04 07:38:14;;;;;;;3.15;1.38;;;;;;;16.29;43.43;100852.69;4894590;29;20068;-63
2024/03/04 07:40:40;;;;;;;3.17;1.40;;;;;;;16.31;43.78;100861.47;4921716;29;20111;-63
2024/03/04 07:43:09;;;;;;;2.67;1.42;;;;;;;16.34;43.02;100861.16;4920930;29;20032;-62
2024/03/04 07:45:35;;;;;;;3.92;1.00;;;;;;;16.32;43.29;100857.78;4900089;29;20100;-62
2024/03/04 07:48:00;;;;;;;2.95;1.17;;;;;;;16.33;42.83;100854.88;4900446;29;20035;-62
2024/03/04 07:50:25;;;;;;;5.65;1.30;;;;;;;16.33;43.19;100862.19;4900749;29;20028;-62
2024/03/04 07:52:51;;;;;;;8.38;1.63;;;;;;;16.36;43.55;100859.13;4934749;29;20027;-63
2024/03/04 07:55:17;;;;;;;3.65;1.80;;;;;;;16.39;43.35;100866.06;4936288;29;20040;-63
2024/03/04 07:57:45;;;;;;;1.90;1.20;;;;;;;16.43;43.24;100867.41;4919097;29;20052;-63
2024/03/04 08:00:11;;;;;;;7.53;1.70;;;;;;;16.43;43.28;100854.75;4919330;29;20470;-63
2024/03/04 08:02:37;;;;;;;2.30;1.60;;;;;;;16.51;43.78;100864.72;4935789;29;20525;-62
2024/03/04 08:05:04;;;;;;;5.63;1.80;;;;;;;16.54;44.18;100859.88;4918930;29;20050;-63
2024/03/04 08:07:29;;;;;;;3.95;2.08;;;;;;;16.62;42.36;100868.00;4934816;29;20050;-63
2024/03/04 08:09:54;;;;;;;3.85;1.92;;;;;;;16.78;42.79;100861.75;4935643;29;20567;-63
2024/03/04 08:12:20;;;;;;;4.35;2.13;;;;;;;16.91;43.66;100866.66;4936117;29;20039;-63
2024/03/04 08:14:46;;;;;;;4.10;2.17;;;;;;;17.08;42.45;100874.63;4936027;29;20131;-63
2024/03/04 08:17:15;;;;;;;3.97;1.67;;;;;;;17.16;43.23;100871.06;4935029;29;20036;-63
2024/03/04 08:19:41;;;;;;;1.95;1.73;;;;;;;17.56;41.93;100867.47;4935638;29;20042;-63
2024/03/04 08:22:06;;;;;;;3.92;2.40;;;;;;;17.89;41.93;100875.31;4934792;29;20261;-63
2024/03/04 08:24:32;;;;;;;4.70;1.85;;;;;;;18.23;41.76;100876.88;4935959;29;20567;-63
2024/03/04 08:26:57;;;;;;;3.40;2.00;;;;;;;18.55;41.69;100887.53;4934619;29;20118;-63
2024/03/04 08:29:22;;;;;;;6.05;1.58;;;;;;;18.83;41.75;100877.84;4935892;29;20491;-63
2024/03/04 08:31:49;;;;;;;1.70;1.60;;;;;;;19.12;40.60;100885.25;4934639;29;20039;-63
2024/03/04 08:34:15;;;;;;;9.98;1.70;;;;;;;19.41;41.04;100889.94;4934218;29;20067;-63
2024/03/04 08:36:40;;;;;;;2.20;1.42;;;;;;;19.66;40.53;100883.22;4918716;29;20461;-63
2024/03/04 08:39:05;;;;;;;3.25;1.77;;;;;;;19.89;40.57;100892.13;4935671;29;20036;-63
2024/03/04 08:41:31;;;;;;;2.80;1.50;;;;;;;20.12;40.52;100884.72;4934632;29;20430;-63
2024/03/04 08:43:56;;;;;;;3.33;1.33;;;;;;;20.35;40.15;100886.47;4935377;29;20063;-63
2024/03/04 08:46:21;;;;;;;6.13;1.63;;;;;;;20.57;39.60;100888.19;4918712;29;20123;-64
2024/03/04 08:48:47;;;;;;;5.13;1.42;;;;;;;20.81;40.25;100885.94;4934454;29;20071;-64
2024/03/04 08:51:12;;;;;;;2.15;1.95;;;;;;;21.07;39.54;100885.41;4935691;29;20028;-63
2024/03/04 08:53:37;;;;;;;2.10;1.38;;;;;;;21.30;39.75;100896.91;4934428;29;20135;-66
2024/03/04 08:56:06;;;;;;;2.65;2.17;;;;;;;21.53;38.94;100895.81;4936500;29;20104;-65
2024/03/04 08:58:32;;;;;;;2.53;1.60;;;;;;;21.74;39.05;100887.59;4938375;29;20038;-64
2024/03/04 09:00:57;;;;;;;3.30;1.52;;;;;;;21.97;38.45;100894.47;4921996;29;20036;-64
2024/03/04 09:03:23;;;;;;;3.78;1.60;;;;;;;21.99;38.81;100895.13;4938541;29;20035;-64
2024/03/04 09:05:48;;;;;;;4.47;1.70;;;;;;;22.30;38.56;100900.09;4922469;29;20066;-64
2024/03/04 09:08:13;;;;;;;7.75;2.10;;;;;;;22.54;37.87;100896.81;4922313;29;20032;-64
2024/03/04 09:10:40;;;;;;;4.10;1.20;;;;;;;22.83;37.41;100900.28;4938094;29;20036;-64
2024/03/04 09:13:05;;;;;;;4.93;1.42;;;;;;;22.50;37.79;100884.59;4938451;29;20111;-68
2024/03/04 09:15:30;;;;;;;3.63;1.55;;;;;;;22.92;37.27;100888.94;4938210;29;20068;-65
2024/03/04 09:17:56;;;;;;;3.70;2.08;;;;;;;22.74;37.87;100896.91;4938990;29;20105;-64
2024/03/04 09:20:21;;;;;;;2.80;1.10;;;;;;;23.20;37.16;100899.69;4937645;29;20043;-64
2024/03/04 09:22:47;;;;;;;7.25;1.70;;;;;;;23.48;37.13;100891.31;4937500;29;20062;-66
2024/03/04 09:25:12;;;;;;;1.60;0.93;;;;;;;23.76;36.49;100887.25;4937826;29;20039;-64
2024/03/04 09:27:39;;;;;;;4.00;1.23;;;;;;;23.72;36.56;100894.22;4921626;29;20114;-64
2024/03/04 09:30:07;;;;;;;4.97;0.93;;;;;;;24.04;35.63;100895.19;4937626;29;20035;-64
2024/03/04 09:32:33;;;;;;;1.05;0.82;;;;;;;23.87;36.21;100888.50;4937232;29;20043;-64
2024/03/04 09:34:58;;;;;;;1.50;0.73;;;;;;;23.54;36.10;100883.09;4938471;29;20044;-64
2024/03/04 09:37:23;;;;;;;2.95;1.23;;;;;;;23.34;35.76;100887.69;4938823;29;20036;-63
2024/03/04 09:39:49;;;;;;;1.92;0.90;;;;;;;23.08;36.05;100887.72;4937497;29;20031;-64
2024/03/04 09:42:15;;;;;;;0.63;0.63;;;;;;;22.87;36.57;100890.59;4937388;29;20500;-63
2024/03/04 09:44:41;;;;;;;1.77;0.80;;;;;;;23.39;35.03;100889.84;4937501;29;20039;-66
2024/03/04 09:47:07;;;;;;;2.67;0.60;;;;;;;23.25;35.69;100894.44;4937258;29;20032;-64
2024/03/04 09:49:34;;;;;;;3.05;0.88;;;;;;;22.77;36.21;100910.16;4921243;29;20118;-63
2024/03/04 09:52:02;;;;;;;0.75;0.63;;;;;;;22.39;36.47;100904.31;4921356;29;20087;-63
2024/03/04 09:54:29;;;;;;;1.13;0.80;;;;;;;22.11;35.74;100905.47;4938375;29;20460;-63
2024/03/04 09:56:54;;;;;;;1.95;1.02;;;;;;;21.88;36.01;100905.75;4937438;29;20039;-64
2024/03/04 09:59:20;;;;;;;1.33;0.82;;;;;;;21.69;36.48;100906.44;4937061;29;20032;-63
2024/03/04 10:01:45;;;;;;;1.27;0.80;;;;;;;21.47;36.18;100903.75;4936938;29;20039;-63
2024/03/04 10:04:11;;;;;;;2.50;1.02;;;;;;;21.42;35.85;100910.84;4920934;29;20107;-63
2024/03/04 10:06:37;;;;;;;2.38;1.70;;;;;;;21.84;35.43;100902.53;4936136;29;20535;-64
2024/03/04 10:09:03;;;;;;;2.60;0.88;;;;;;;22.47;35.17;100906.84;4936568;29;20058;-64
2024/03/04 10:11:28;;;;;;;3.17;0.90;;;;;;;22.27;35.11;100908.69;4936720;29;20407;-63
2024/03/04 10:13:53;;;;;;;1.52;1.23;;;;;;;22.05;36.08;100902.47;4936724;29;20020;-63
2024/03/04 10:16:19;;;;;;;0.95;0.90;;;;;;;21.95;35.35;100912.06;4936877;28;20027;-63
2024/03/04 10:18:59;;;;;;;0.98;0.90;;;;;;;22.40;34.94;100913.34;4937975;29;20031;-63
2024/03/04 10:21:27;;;;;;;0.80;0.80;;;;;;;22.47;34.99;100914.22;4936747;29;20102;-64
2024/03/04 10:23:52;;;;;;;5.38;1.23;;;;;;;22.23;35.08;100915.59;4936893;29;20107;-63
2024/03/04 10:26:18;;;;;;;3.25;0.80;;;;;;;22.05;35.12;100912.56;4936579;29;20488;-64
2024/03/04 10:28:44;;;;;;;1.23;0.80;;;;;;;21.90;35.92;100920.03;4920633;29;20448;-64
2024/03/04 10:31:11;;;;;;;1.13;0.82;;;;;;;21.75;35.47;100924.69;4936690;29;20040;-64
2024/03/04 10:33:37;;;;;;;3.67;0.80;;;;;;;21.65;35.55;100926.94;4937840;29;20512;-63
2024/03/04 10:36:20;;;;;;;2.20;0.63;;;;;;;22.73;34.16;100921.66;4936288;29;20422;-63
2024/03/04 10:38:47;;;;;;;2.60;1.17;;;;;;;23.55;33.37;100916.75;4936251;29;20024;-64
2024/03/04 10:41:23;;;;;;;2.85;1.15;;;;;;;24.29;32.73;100914.50;4937509;29;20031;-64
2024/03/04 10:43:51;;;;;;;1.13;0.70;;;;;;;24.90;32.43;100895.69;4920569;29;20098;-64
2024/03/04 10:46:18;;;;;;;2.30;1.13;;;;;;;25.41;31.90;100909.22;4936381;29;20072;-65
2024/03/04 10:48:47;;;;;;;0.80;0.77;;;;;;;25.49;32.45;100916.38;4937264;29;20035;-64
2024/03/04 10:51:16;;;;;;;1.23;1.05;;;;;;;25.31;32.69;100912.47;4920217;29;20031;-65
2024/03/04 10:53:44;;;;;;;2.10;1.33;;;;;;;25.68;31.73;100915.34;4920146;29;20407;-64
2024/03/04 10:56:14;;;;;;;2.05;0.70;;;;;;;25.90;31.90;100913.84;4919977;29;20040;-64
2024/03/04 10:58:44;;;;;;;0.80;0.75;;;;;;;25.80;32.07;100908.88;4935939;29;20032;-63
2024/03/04 11:01:17;;;;;;;2.35;0.98;;;;;;;26.56;31.31;100917.53;4935780;29;20028;-63
2024/03/04 11:03:48;;;;;;;1.48;0.82;;;;;;;27.11;30.43;100911.88;4935587;29;20123;-66
2024/03/04 11:06:18;;;;;;;0.73;0.73;;;;;;;27.64;29.66;100909.13;4935804;29;20503;-65
2024/03/04 11:08:52;;;;;;;1.67;0.88;;;;;;;28.21;29.77;100916.53;4935928;29;20048;-66
2024/03/04 11:11:20;;;;;;;0.88;0.70;;;;;;;28.62;29.21;100909.09;4919708;29;20086;-64
2024/03/04 11:14:03;;;;;;;1.10;0.70;;;;;;;29.05;28.63;100912.19;4919997;29;20407;-65
2024/03/04 11:16:29;;;;;;;1.38;0.82;;;;;;;29.37;28.97;100905.03;4935430;29;20042;-64
2024/03/04 11:19:12;;;;;;;1.30;0.80;;;;;;;28.93;28.69;100908.63;4936237;29;20036;-65